createdAt,value
2019-02-19T00:01:48.881Z,100638.47
2019-02-19T00:04:20.342Z,100640.16
2019-02-19T00:06:53.816Z,100644.86
2019-02-19T00:09:25.076Z,100642.52
2019-02-19T00:11:56.650Z,100642.09
2019-02-19T00:14:28.137Z,100645.61
2019-02-19T00:16:59.748Z,100633.59
2019-02-19T00:19:31.515Z,100635.84
2019-02-19T00:22:03.129Z,100642.70
2019-02-19T00:24:34.612Z,100643.65
2019-02-19T00:27:06.053Z,100635.78
2019-02-19T00:29:38.424Z,100636.02
2019-02-19T00:32:09.892Z,100639.25
2019-02-19T00:34:41.487Z,100644.33
2019-02-19T00:37:12.946Z,100643.09
2019-02-19T00:39:44.409Z,100646.11
2019-02-19T00:42:15.837Z,100643.38
2019-02-19T00:44:49.395Z,100636.48
2019-02-19T00:47:20.513Z,100637.96
2019-02-19T00:49:51.925Z,100635.06
2019-02-19T00:52:23.274Z,100633.38
2019-02-19T00:54:54.642Z,100636.08
2019-02-19T00:57:26.111Z,100633.06
2019-02-19T00:59:57.717Z,100638.47
2019-02-19T01:02:29.315Z,100634.44
2019-02-19T01:05:00.757Z,100630.92
2019-02-19T01:07:32.125Z,100642.42
2019-02-19T01:10:04.520Z,100632.26
2019-02-19T01:12:35.833Z,100636.69
2019-02-19T01:15:10.483Z,100637.49
2019-02-19T01:17:41.777Z,100633.85
2019-02-19T01:20:13.311Z,100632.84
2019-02-19T01:22:44.612Z,100637.61
2019-02-19T01:25:16.061Z,100634.61
2019-02-19T01:27:51.462Z,100637.61
2019-02-19T01:30:23.024Z,100627.76
2019-02-19T01:32:54.373Z,100626.34
2019-02-19T01:35:28.795Z,100630.88
2019-02-19T01:37:59.941Z,100630.37
2019-02-19T01:40:31.283Z,100638.58
2019-02-19T01:43:02.793Z,100639.28
2019-02-19T01:45:34.456Z,100636.38
2019-02-19T01:48:06.268Z,100637.40
2019-02-19T01:50:37.808Z,100633.21
2019-02-19T01:53:09.225Z,100636.78
2019-02-19T01:55:40.898Z,100641.70
2019-02-19T01:58:12.361Z,100640.34
2019-02-19T02:00:43.933Z,100641.83
2019-02-19T02:03:15.529Z,100644.88
2019-02-19T02:05:47.019Z,100636.78
2019-02-19T02:08:18.353Z,100628.27
2019-02-19T02:10:51.679Z,100635.47
2019-02-19T02:13:23.168Z,100627.70
2019-02-19T02:15:54.663Z,100626.86
2019-02-19T02:18:26.061Z,100624.19
2019-02-19T02:20:57.522Z,100626.91
2019-02-19T02:23:28.910Z,100625.80
2019-02-19T02:26:00.281Z,100625.72
2019-02-19T02:28:31.655Z,100622.41
2019-02-19T02:31:03.115Z,100624.95
2019-02-19T02:33:34.661Z,100615.17
2019-02-19T02:36:06.137Z,100624.88
2019-02-19T02:38:37.685Z,100619.87
2019-02-19T02:41:09.165Z,100618.30
2019-02-19T02:43:40.804Z,100615.58
2019-02-19T02:46:12.277Z,100615.50
2019-02-19T02:48:43.591Z,100618.40
2019-02-19T02:51:15.062Z,100620.72
2019-02-19T02:53:46.580Z,100622.98
2019-02-19T02:56:18.052Z,100626.09
2019-02-19T02:59:01.392Z,100629.11
2019-02-19T03:01:33.002Z,100627.55
2019-02-19T03:04:04.595Z,100624.19
2019-02-19T03:06:40.394Z,100623.30
2019-02-19T03:09:15.452Z,100616.40
2019-02-19T03:11:46.867Z,100616.19
2019-02-19T03:14:18.395Z,100623.26
2019-02-19T03:16:49.868Z,100614.06
2019-02-19T03:19:21.178Z,100617.03
2019-02-19T03:21:52.624Z,100619.15
2019-02-19T03:24:23.989Z,100618.67
2019-02-19T03:26:58.376Z,100617.91
2019-02-19T03:29:29.774Z,100619.45
2019-02-19T03:32:02.153Z,100615.17
2019-02-19T03:34:33.842Z,100618.72
2019-02-19T03:37:05.433Z,100630.20
2019-02-19T03:39:36.769Z,100627.11
2019-02-19T03:42:08.526Z,100626.27
2019-02-19T03:44:43.129Z,100625.76
2019-02-19T03:47:14.471Z,100630.92
2019-02-19T03:49:45.938Z,100626.27
2019-02-19T03:52:17.306Z,100631.19
2019-02-19T03:54:48.698Z,100635.12
2019-02-19T03:57:20.266Z,100625.42
2019-02-19T03:59:51.853Z,100623.59
2019-02-19T04:02:23.487Z,100629.03
2019-02-19T04:04:54.883Z,100630.77
2019-02-19T04:07:26.345Z,100637.24
2019-02-19T04:09:57.803Z,100637.58
2019-02-19T04:12:29.203Z,100636.55
2019-02-19T04:15:00.733Z,100635.58
2019-02-19T04:17:32.362Z,100626.38
2019-02-19T04:20:04.399Z,100626.76
2019-02-19T04:22:35.829Z,100628.25
2019-02-19T04:25:07.293Z,100624.40
2019-02-19T04:27:38.814Z,100629.45
2019-02-19T04:30:10.567Z,100627.63
2019-02-19T04:32:42.946Z,100629.36
2019-02-19T04:35:14.329Z,100628.14
2019-02-19T04:37:45.707Z,100622.38
2019-02-19T04:40:18.890Z,100627.02
2019-02-19T04:42:50.361Z,100624.22
2019-02-19T04:45:26.793Z,100638.89
2019-02-19T04:47:59.911Z,100638.09
2019-02-19T04:50:32.196Z,100642.78
2019-02-19T04:53:03.597Z,100643.63
2019-02-19T04:55:34.930Z,100642.61
2019-02-19T04:58:06.247Z,100640.27
2019-02-19T05:00:37.556Z,100640.91
2019-02-19T05:03:09.020Z,100648.22
2019-02-19T05:05:40.584Z,100649.53
2019-02-19T05:08:12.261Z,100641.41
2019-02-19T05:10:53.182Z,100647.23
2019-02-19T05:13:24.620Z,100640.41
2019-02-19T05:15:56.050Z,100650.17
2019-02-19T05:18:27.636Z,100650.73
2019-02-19T05:20:59.996Z,100641.69
2019-02-19T05:23:31.442Z,100644.03
2019-02-19T05:26:02.766Z,100652.33
2019-02-19T05:28:37.440Z,100643.33
2019-02-19T05:31:10.418Z,100639.15
2019-02-19T05:33:41.966Z,100634.50
2019-02-19T05:36:22.004Z,100639.17
2019-02-19T05:38:53.465Z,100642.64
2019-02-19T05:41:24.858Z,100654.81
2019-02-19T05:43:57.293Z,100649.94
2019-02-19T05:46:28.772Z,100648.25
2019-02-19T05:49:00.260Z,100646.00
2019-02-19T05:51:31.596Z,100652.56
2019-02-19T05:54:03.173Z,100654.76
2019-02-19T05:56:34.608Z,100660.16
2019-02-19T05:59:06.070Z,100659.52
2019-02-19T06:01:37.383Z,100662.71
2019-02-19T06:04:08.662Z,100662.86
2019-02-19T06:06:40.056Z,100667.69
2019-02-19T06:09:11.409Z,100672.98
2019-02-19T06:11:43.107Z,100673.41
2019-02-19T06:14:14.469Z,100675.51
2019-02-19T06:16:45.856Z,100677.61
2019-02-19T06:19:17.174Z,100675.68
2019-02-19T06:21:48.591Z,100669.39
2019-02-19T06:24:19.977Z,100675.53
2019-02-19T06:26:51.403Z,100683.30
2019-02-19T06:29:22.702Z,100684.09
2019-02-19T06:31:54.145Z,100681.78
2019-02-19T06:34:27.543Z,100680.73
2019-02-19T06:36:58.871Z,100684.20
2019-02-19T06:39:30.285Z,100680.11
2019-02-19T06:42:01.630Z,100676.55
2019-02-19T06:44:34.191Z,100675.08
2019-02-19T06:47:07.141Z,100678.12
2019-02-19T06:49:38.662Z,100674.08
2019-02-19T06:52:10.004Z,100674.97
2019-02-19T06:54:41.327Z,100681.16
2019-02-19T06:57:12.733Z,100693.84
2019-02-19T06:59:44.132Z,100704.76
2019-02-19T07:02:21.202Z,100702.50
2019-02-19T07:04:52.971Z,100717.76
2019-02-19T07:07:24.297Z,100724.64
2019-02-19T07:09:55.588Z,100737.42
2019-02-19T07:12:27.003Z,100741.83
2019-02-19T07:14:58.313Z,100744.92
2019-02-19T07:17:29.644Z,100732.34
2019-02-19T07:20:01.017Z,100741.58
2019-02-19T07:22:32.382Z,100731.14
2019-02-19T07:25:04.417Z,100731.19
2019-02-19T07:27:35.821Z,100730.83
2019-02-19T07:30:13.124Z,100738.74
2019-02-19T07:32:44.385Z,100747.03
2019-02-19T07:35:16.575Z,100762.40
2019-02-19T07:37:47.905Z,100765.91
2019-02-19T07:40:19.396Z,100762.51
2019-02-19T07:42:50.763Z,100765.19
2019-02-19T07:45:22.265Z,100772.69
2019-02-19T07:47:53.519Z,100768.44
2019-02-19T07:50:24.825Z,100770.33
2019-02-19T07:52:56.170Z,100773.48
2019-02-19T07:55:27.477Z,100786.23
2019-02-19T07:58:00.505Z,100784.55
2019-02-19T08:00:31.867Z,100783.81
2019-02-19T08:03:04.981Z,100787.44
2019-02-19T08:05:36.536Z,100793.78
2019-02-19T08:08:07.880Z,100793.99
2019-02-19T08:10:39.207Z,100801.76
2019-02-19T08:13:10.455Z,100808.17
2019-02-19T08:15:41.844Z,100808.03
2019-02-19T08:18:13.197Z,100819.63
2019-02-19T08:20:44.605Z,100827.52
2019-02-19T08:23:16.015Z,100826.18
2019-02-19T08:25:47.477Z,100827.30
2019-02-19T08:28:18.757Z,100828.96
2019-02-19T08:30:52.215Z,100841.40
2019-02-19T08:33:23.556Z,100845.22
2019-02-19T08:35:54.899Z,100845.60
2019-02-19T08:38:26.218Z,100846.63
2019-02-19T08:40:57.543Z,100855.97
2019-02-19T08:43:28.878Z,100857.16
2019-02-19T08:46:00.198Z,100850.31
2019-02-19T08:48:31.584Z,100851.72
2019-02-19T08:51:02.996Z,100849.94
2019-02-19T08:53:34.227Z,100846.87
2019-02-19T08:56:05.825Z,100852.30
2019-02-19T08:58:37.220Z,100858.58
2019-02-19T09:01:08.621Z,100861.67
2019-02-19T09:03:39.943Z,100864.39
2019-02-19T09:06:11.490Z,100878.02
2019-02-19T09:08:42.791Z,100876.79
2019-02-19T09:11:14.115Z,100873.89
2019-02-19T09:13:45.410Z,100880.44
2019-02-19T09:16:16.814Z,100873.86
2019-02-19T09:18:48.207Z,100870.45
2019-02-19T09:21:19.798Z,100877.16
2019-02-19T09:23:51.066Z,100881.66
2019-02-19T09:26:22.470Z,100875.58
2019-02-19T09:28:54.013Z,100874.25
2019-02-19T09:31:25.321Z,100878.33
2019-02-19T09:33:57.043Z,100878.44
2019-02-19T09:36:30.990Z,100881.66
2019-02-19T09:39:05.331Z,100886.62
2019-02-19T09:41:49.482Z,100883.59
2019-02-19T09:44:22.393Z,100894.10
2019-02-19T09:46:53.705Z,100895.34
2019-02-19T09:49:25.041Z,100894.02
2019-02-19T09:51:56.351Z,100898.83
2019-02-19T09:54:27.812Z,100899.67
2019-02-19T09:56:59.276Z,100895.14
2019-02-19T09:59:30.545Z,100890.26
2019-02-19T10:02:02.597Z,100888.91
2019-02-19T10:04:33.915Z,100884.45
2019-02-19T10:07:05.278Z,100892.73
2019-02-19T10:09:36.619Z,100896.64
2019-02-19T10:12:08.051Z,100903.23
2019-02-19T10:14:39.410Z,100907.10
2019-02-19T10:17:10.733Z,100918.06
2019-02-19T10:19:42.123Z,100929.83
2019-02-19T10:22:13.483Z,100918.91
2019-02-19T10:24:44.851Z,100920.23
2019-02-19T10:27:16.297Z,100920.57
2019-02-19T10:29:47.644Z,100923.20
2019-02-19T10:32:19.111Z,100924.52
2019-02-19T10:34:50.348Z,100923.59
2019-02-19T10:37:21.884Z,100926.66
2019-02-19T10:39:53.259Z,100931.96
2019-02-19T10:42:24.659Z,100924.52
2019-02-19T10:44:56.105Z,100930.38
2019-02-19T10:47:27.425Z,100932.72
2019-02-19T10:49:58.800Z,100934.66
2019-02-19T10:52:30.122Z,100938.77
2019-02-19T10:55:01.414Z,100935.09
2019-02-19T10:57:33.010Z,100934.87
2019-02-19T11:00:06.822Z,100944.33
2019-02-19T11:02:38.317Z,100944.02
2019-02-19T11:05:11.432Z,100948.39
2019-02-19T11:07:42.755Z,100947.16
2019-02-19T11:10:17.234Z,100943.35
2019-02-19T11:12:48.582Z,100937.80
2019-02-19T11:15:19.924Z,100935.20
2019-02-19T11:17:51.242Z,100936.02
2019-02-19T11:20:23.648Z,100938.66
2019-02-19T11:22:55.048Z,100929.04
2019-02-19T11:25:26.377Z,100938.45
2019-02-19T11:27:57.699Z,100946.16
2019-02-19T11:30:29.120Z,100943.31
2019-02-19T11:33:00.580Z,100942.95
2019-02-19T11:35:35.165Z,100938.28
2019-02-19T11:38:09.515Z,100935.61
2019-02-19T11:40:41.001Z,100929.55
2019-02-19T11:43:12.393Z,100934.50
2019-02-19T11:45:43.704Z,100935.59
2019-02-19T11:48:14.959Z,100929.98
2019-02-19T11:50:46.369Z,100928.37
2019-02-19T11:53:17.775Z,100931.18
2019-02-19T11:55:49.253Z,100934.94
2019-02-19T11:58:20.777Z,100934.30
2019-02-19T12:00:52.180Z,100929.55
2019-02-19T12:03:23.529Z,100933.16
2019-02-19T12:05:54.898Z,100934.61
2019-02-19T12:08:26.323Z,100932.80
2019-02-19T12:10:57.688Z,100928.00
2019-02-19T12:13:29.029Z,100922.34
2019-02-19T12:16:00.427Z,100919.80
2019-02-19T12:18:31.675Z,100917.73
2019-02-19T12:21:04.036Z,100923.62
2019-02-19T12:23:35.462Z,100916.44
2019-02-19T12:26:06.826Z,100915.58
2019-02-19T12:28:38.232Z,100919.55
2019-02-19T12:31:09.624Z,100911.30
2019-02-19T12:33:41.142Z,100909.91
2019-02-19T12:36:12.490Z,100907.64
2019-02-19T12:38:43.835Z,100906.83
2019-02-19T12:41:15.237Z,100904.78
2019-02-19T12:43:46.588Z,100904.20
2019-02-19T12:46:17.961Z,100896.30
2019-02-19T12:48:54.578Z,100893.78
2019-02-19T12:51:26.482Z,100882.84
2019-02-19T12:53:55.768Z,100888.53
2019-02-19T12:56:27.029Z,100886.42
2019-02-19T12:58:58.417Z,100879.42
2019-02-19T13:01:29.823Z,100878.09
2019-02-19T13:04:01.281Z,100873.97
2019-02-19T13:06:32.712Z,100874.78
2019-02-19T13:09:05.259Z,100870.09
2019-02-19T13:11:37.480Z,100877.35
2019-02-19T13:14:08.796Z,100872.53
2019-02-19T13:16:40.051Z,100868.20
2019-02-19T13:19:11.517Z,100867.77
2019-02-19T13:21:42.755Z,100871.41
2019-02-19T13:24:14.133Z,100866.69
2019-02-19T13:26:45.477Z,100872.56
2019-02-19T13:29:16.792Z,100862.99
2019-02-19T13:31:48.070Z,100871.08
2019-02-19T13:34:19.447Z,100870.58
2019-02-19T13:36:50.773Z,100868.69
2019-02-19T13:39:22.337Z,100869.94
2019-02-19T13:41:53.673Z,100869.33
2019-02-19T13:44:26.131Z,100867.08
2019-02-19T13:46:57.556Z,100868.40
2019-02-19T13:49:28.886Z,100867.52
2019-02-19T13:52:01.907Z,100872.30
2019-02-19T13:54:33.343Z,100873.05
2019-02-19T13:57:05.041Z,100865.50
2019-02-19T13:59:36.459Z,100865.50
2019-02-19T14:02:09.266Z,100871.63
2019-02-19T14:04:40.598Z,100871.59
2019-02-19T14:07:12.074Z,100868.03
2019-02-19T14:09:43.470Z,100864.16
2019-02-19T14:12:17.551Z,100860.95
2019-02-19T14:14:50.595Z,100862.44
2019-02-19T14:17:22.338Z,100862.56
2019-02-19T14:19:55.871Z,100862.66
2019-02-19T14:22:28.988Z,100860.48
2019-02-19T14:25:18.417Z,100860.36
2019-02-19T14:27:51.565Z,100859.79
2019-02-19T14:30:41.044Z,100860.87
2019-02-19T14:33:20.052Z,100860.83
2019-02-19T14:36:09.289Z,100863.27
2019-02-19T14:38:48.149Z,100862.97
2019-02-19T14:41:37.316Z,100867.27
2019-02-19T14:44:13.270Z,100882.23
2019-02-19T14:47:02.742Z,100883.47
2019-02-19T14:49:47.303Z,100882.13
2019-02-19T14:52:20.639Z,100877.98
2019-02-19T14:55:09.489Z,100868.69
2019-02-19T14:57:54.699Z,100871.70
2019-02-19T15:00:34.698Z,100869.83
2019-02-19T15:03:05.990Z,100880.36
2019-02-19T15:05:37.564Z,100872.81
2019-02-19T15:08:20.626Z,100877.12
2019-02-19T15:11:00.430Z,100885.08
2019-02-19T15:13:33.511Z,100876.21
2019-02-19T15:16:07.047Z,100877.08
2019-02-19T15:18:52.214Z,100877.52
2019-02-19T15:21:30.986Z,100878.86
2019-02-19T15:24:11.035Z,100876.23
2019-02-19T15:26:44.042Z,100874.02
2019-02-19T15:29:33.104Z,100878.41
2019-02-19T15:32:22.476Z,100880.22
2019-02-19T15:35:08.349Z,100879.45
2019-02-19T15:37:48.299Z,100875.29
2019-02-19T15:40:19.531Z,100874.18
2019-02-19T15:43:01.907Z,100870.80
2019-02-19T15:45:49.630Z,100870.92
2019-02-19T15:48:35.173Z,100868.39
2019-02-19T15:51:12.461Z,100873.68
2019-02-19T15:53:43.581Z,100870.02
2019-02-19T15:56:32.549Z,100873.57
2019-02-19T15:59:08.064Z,100872.59
2019-02-19T16:01:47.133Z,100883.33
2019-02-19T16:04:20.102Z,100881.23
2019-02-19T16:07:07.898Z,100885.06
2019-02-19T16:09:48.098Z,100889.42
2019-02-19T16:12:31.172Z,100890.63
2019-02-19T16:15:04.206Z,100888.23
2019-02-19T16:17:38.090Z,100889.97
2019-02-19T16:20:24.784Z,100891.27
2019-02-19T16:23:08.023Z,100889.84
2019-02-19T16:25:41.846Z,100889.58
2019-02-19T16:28:32.756Z,100887.20
2019-02-19T16:31:22.007Z,100889.31
2019-02-19T16:33:57.989Z,100885.13
2019-02-19T16:36:35.639Z,100879.30
2019-02-19T16:39:16.513Z,100887.93
2019-02-19T16:41:49.538Z,100888.31
2019-02-19T16:44:40.480Z,100893.34
2019-02-19T16:47:16.514Z,100887.48
2019-02-19T16:49:55.766Z,100891.28
2019-02-19T16:52:31.592Z,100898.58
2019-02-19T16:55:07.388Z,100908.16
2019-02-19T16:57:46.512Z,100902.73
2019-02-19T17:00:22.791Z,100907.95
2019-02-19T17:03:00.225Z,100909.95
2019-02-19T17:05:33.349Z,100903.65
2019-02-19T17:08:06.623Z,100906.09
2019-02-19T17:10:46.820Z,100913.09
2019-02-19T17:13:29.965Z,100913.46
2019-02-19T17:16:13.073Z,100917.25
2019-02-19T17:18:49.480Z,100919.33
2019-02-19T17:21:22.515Z,100924.94
2019-02-19T17:24:09.006Z,100920.88
2019-02-19T17:26:44.919Z,100926.94
2019-02-19T17:29:34.722Z,100927.52
2019-02-19T17:32:20.132Z,100929.94
2019-02-19T17:34:59.156Z,100938.53
2019-02-19T17:37:50.317Z,100940.41
2019-02-19T17:40:29.036Z,100939.64
2019-02-19T17:43:04.919Z,100941.34
2019-02-19T17:45:41.859Z,100943.92
2019-02-19T17:48:21.019Z,100952.52
2019-02-19T17:51:10.791Z,100952.09
2019-02-19T17:53:56.967Z,100956.55
2019-02-19T17:56:28.116Z,100956.85
2019-02-19T17:59:01.035Z,100953.20
2019-02-19T18:01:34.053Z,100954.69
2019-02-19T18:04:05.144Z,100957.66
2019-02-19T18:06:50.338Z,100949.67
2019-02-19T18:09:26.112Z,100955.05
2019-02-19T18:12:04.814Z,100962.17
2019-02-19T18:14:41.591Z,100963.83
2019-02-19T18:17:16.278Z,100964.34
2019-02-19T18:19:47.557Z,100965.90
2019-02-19T18:22:18.892Z,100972.66
2019-02-19T18:24:50.211Z,100975.52
2019-02-19T18:27:21.663Z,100976.63
2019-02-19T18:29:53.032Z,100976.91
2019-02-19T18:32:24.560Z,100978.81
2019-02-19T18:34:55.983Z,100971.20
2019-02-19T18:37:27.294Z,100976.25
2019-02-19T18:39:58.862Z,100977.89
2019-02-19T18:42:30.420Z,100974.11
2019-02-19T18:45:03.846Z,100982.20
2019-02-19T18:47:35.954Z,100982.39
2019-02-19T18:50:09.825Z,100986.54
2019-02-19T18:52:46.933Z,100982.02
2019-02-19T18:55:18.383Z,100990.11
2019-02-19T18:57:49.749Z,100987.62
2019-02-19T19:00:22.209Z,100990.23
2019-02-19T19:02:53.635Z,100990.38
2019-02-19T19:05:25.036Z,100991.00
2019-02-19T19:07:56.386Z,100984.23
2019-02-19T19:10:28.007Z,100994.62
2019-02-19T19:13:02.112Z,100993.67
2019-02-19T19:15:34.591Z,100994.81
2019-02-19T19:18:05.906Z,101003.83
2019-02-19T19:20:37.296Z,100994.47
2019-02-19T19:23:08.541Z,100999.72
2019-02-19T19:25:39.861Z,101007.48
2019-02-19T19:28:11.190Z,101010.46
2019-02-19T19:30:42.692Z,101013.03
2019-02-19T19:33:14.214Z,101013.39
2019-02-19T19:35:45.688Z,101013.80
2019-02-19T19:38:17.018Z,101011.23
2019-02-19T19:40:48.655Z,101013.86
2019-02-19T19:43:20.142Z,101013.56
2019-02-19T19:45:52.240Z,101008.48
2019-02-19T19:48:24.123Z,101014.80
2019-02-19T19:50:56.538Z,101011.45
2019-02-19T19:53:28.005Z,101008.70
2019-02-19T19:55:59.801Z,101014.09
2019-02-19T19:58:31.062Z,101014.00
2019-02-19T20:01:03.743Z,101013.31
2019-02-19T20:03:35.240Z,101017.95
2019-02-19T20:06:06.748Z,101014.43
2019-02-19T20:08:39.145Z,101020.94
2019-02-19T20:11:10.739Z,101021.83
2019-02-19T20:13:42.215Z,101019.04
2019-02-19T20:16:14.781Z,101017.61
2019-02-19T20:18:46.097Z,101020.03
2019-02-19T20:21:26.236Z,101018.13
2019-02-19T20:23:51.726Z,101024.63
2019-02-19T20:26:23.473Z,101024.88
2019-02-19T20:28:54.810Z,101020.90
2019-02-19T20:31:26.381Z,101019.42
2019-02-19T20:34:00.164Z,101015.20
2019-02-19T20:36:44.227Z,101025.97
2019-02-19T20:39:15.637Z,101035.22
2019-02-19T20:41:47.216Z,101043.05
2019-02-19T20:44:18.594Z,101041.55
2019-02-19T20:46:50.038Z,101041.42
2019-02-19T20:49:21.379Z,101046.23
2019-02-19T20:51:52.811Z,101040.17
2019-02-19T20:54:24.129Z,101047.13
2019-02-19T20:56:55.486Z,101043.05
2019-02-19T20:59:26.862Z,101048.13
2019-02-19T21:01:58.259Z,101050.37
2019-02-19T21:04:43.162Z,101050.37
2019-02-19T21:07:14.602Z,101048.45
2019-02-19T21:09:47.166Z,101050.37
2019-02-19T21:12:18.757Z,101049.22
2019-02-19T21:14:50.100Z,101044.97
2019-02-19T21:17:21.503Z,101049.88
2019-02-19T21:19:52.904Z,101048.80
2019-02-19T21:22:24.276Z,101046.33
2019-02-19T21:24:55.788Z,101042.97
2019-02-19T21:27:27.172Z,101041.51
2019-02-19T21:29:58.590Z,101048.80
2019-02-19T21:32:30.055Z,101044.73
2019-02-19T21:35:01.732Z,101039.37
2019-02-19T21:37:33.232Z,101036.87
2019-02-19T21:40:07.551Z,101041.35
2019-02-19T21:42:40.684Z,101042.53
2019-02-19T21:45:14.291Z,101045.44
2019-02-19T21:47:46.015Z,101046.33
2019-02-19T21:50:17.491Z,101043.71
2019-02-19T21:52:49.192Z,101045.30
2019-02-19T21:55:20.620Z,101050.89
2019-02-19T21:57:52.105Z,101046.48
2019-02-19T22:00:23.758Z,101048.27
2019-02-19T22:02:56.634Z,101046.97
2019-02-19T22:05:28.203Z,101053.03
2019-02-19T22:07:59.940Z,101047.51
2019-02-19T22:10:31.365Z,101047.42
2019-02-19T22:13:02.723Z,101048.03
2019-02-19T22:15:34.047Z,101050.91
2019-02-19T22:18:06.383Z,101050.20
2019-02-19T22:20:40.421Z,101048.55
2019-02-19T22:23:11.802Z,101055.09
2019-02-19T22:25:43.123Z,101056.76
2019-02-19T22:28:14.568Z,101049.19
2019-02-19T22:30:46.085Z,101048.51
2019-02-19T22:33:17.454Z,101043.48
2019-02-19T22:35:48.719Z,101052.31
2019-02-19T22:38:20.107Z,101045.85
2019-02-19T22:40:55.131Z,101047.31
2019-02-19T22:43:24.421Z,101049.66
2019-02-19T22:45:55.677Z,101052.28
2019-02-19T22:48:26.994Z,101053.53
2019-02-19T22:50:58.322Z,101049.40
2019-02-19T22:53:40.302Z,101054.02
2019-02-19T22:56:25.178Z,101055.33
2019-02-19T22:58:56.478Z,101059.73
2019-02-19T23:01:33.510Z,101062.30
2019-02-19T23:04:05.324Z,101061.07
2019-02-19T23:06:36.935Z,101057.00
2019-02-19T23:09:08.614Z,101056.68
2019-02-19T23:11:40.523Z,101065.75
2019-02-19T23:14:11.980Z,101063.87
2019-02-19T23:16:43.399Z,101068.19
2019-02-19T23:19:14.769Z,101065.81
2019-02-19T23:21:46.195Z,101067.91
2019-02-19T23:24:17.573Z,101067.69
2019-02-19T23:26:50.036Z,101067.13
2019-02-19T23:29:21.487Z,101067.13
2019-02-19T23:31:52.970Z,101068.58
2019-02-19T23:34:24.369Z,101061.52
2019-02-19T23:36:57.337Z,101066.26
2019-02-19T23:39:28.640Z,101066.00
2019-02-19T23:41:59.883Z,101067.91
2019-02-19T23:44:31.251Z,101071.52
2019-02-19T23:47:03.612Z,101068.69
2019-02-19T23:49:34.857Z,101067.49
2019-02-19T23:52:06.237Z,101064.35
2019-02-19T23:54:37.509Z,101071.86
2019-02-19T23:57:08.845Z,101069.16
2019-02-19T23:59:40.196Z,101078.23
